August 11, 2022

Time Code Weather Temp. Visibility Ceiling Wind METAR/SPECI
18:20
V
30 °C 10 km+ - 040° 040° 7 kt METAR EDDG 111620Z AUTO 04007KT 350V140 CAVOK 30/08 Q1020 NOSIG
17:50
V
31 °C 10 km+ - 040° 040° 7 kt METAR EDDG 111550Z AUTO 04007KT 350V130 CAVOK 31/08 Q1020 NOSIG
17:20
V
30 °C 10 km+ - 050° 050° 6 kt METAR EDDG 111520Z AUTO 05006KT 020V110 CAVOK 30/08 Q1020 NOSIG
16:50
V
31 °C 10 km+ - Var Var 7 kt METAR EDDG 111450Z AUTO VRB07KT CAVOK 31/08 Q1021 NOSIG
16:20
V
31 °C 10 km+ - Var Var 7 kt METAR EDDG 111420Z AUTO VRB07KT CAVOK 31/08 Q1020 NOSIG
15:50
V
31 °C 10 km+ - 030° 030° 7 kt METAR EDDG 111350Z AUTO 03007KT 340V100 CAVOK 31/08 Q1021 NOSIG
15:20
V
31 °C 10 km+ - Var Var 4 kt METAR EDDG 111320Z AUTO VRB04KT CAVOK 31/07 Q1021 NOSIG
14:50
V
31 °C 10 km+ - 050° 050° 6 kt METAR EDDG 111250Z AUTO 05006KT 340V120 CAVOK 31/08 Q1021 NOSIG
14:20
V
30 °C 10 km+ - Var Var 5 kt METAR EDDG 111220Z AUTO VRB05KT CAVOK 30/08 Q1022 NOSIG
13:50
V
30 °C 10 km+ - 070° 070° 5 kt METAR EDDG 111150Z AUTO 07005KT 350V150 CAVOK 30/08 Q1022 NOSIG
13:20
V
30 °C 10 km+ - Var Var 5 kt METAR EDDG 111120Z AUTO VRB05KT CAVOK 30/09 Q1022 NOSIG
12:50
V
29 °C 10 km+ - Var Var 5 kt METAR EDDG 111050Z AUTO VRB05KT CAVOK 29/08 Q1022 NOSIG
12:20
V
29 °C 10 km+ - Var Var 5 kt METAR EDDG 111020Z AUTO VRB05KT CAVOK 29/08 Q1023 NOSIG
11:50
V
29 °C 10 km+ - Var Var 6 kt METAR EDDG 110950Z AUTO VRB06KT CAVOK 29/08 Q1023 NOSIG
11:20
V
28 °C 10 km+ - 100° 100° 6 kt METAR EDDG 110920Z AUTO 10006KT 030V170 CAVOK 28/08 Q1023 NOSIG
10:50
V
28 °C 10 km+ - Var Var 5 kt METAR EDDG 110850Z AUTO VRB05KT CAVOK 28/09 Q1023 NOSIG
10:20
V
27 °C 10 km+ - Var Var 4 kt METAR EDDG 110820Z AUTO VRB04KT CAVOK 27/10 Q1023 NOSIG
09:50
V
26 °C 10 km+ - 090° 090° 4 kt METAR EDDG 110750Z AUTO 09004KT 010V160 CAVOK 26/10 Q1023 NOSIG
09:20
V
25 °C 10 km+ - Var Var 3 kt METAR EDDG 110720Z AUTO VRB03KT CAVOK 25/10 Q1023 NOSIG
08:50
V
24 °C 10 km+ - 100° 100° 3 kt METAR EDDG 110650Z AUTO 10003KT 050V210 CAVOK 24/11 Q1023 NOSIG
08:20
V
22 °C 10 km+ - Var Var 2 kt METAR EDDG 110620Z AUTO VRB02KT CAVOK 22/12 Q1023 NOSIG
07:50
V
18 °C 10 km+ - 040° 040° 3 kt METAR EDDG 110550Z AUTO 04003KT 020V080 CAVOK 18/13 Q1023 NOSIG
07:20
V
16 °C 10 km+ - Var Var 1 kt METAR EDDG 110520Z AUTO VRB01KT CAVOK 16/12 Q1023 NOSIG
06:50
V
14 °C 10 km+ - Var Var 1 kt METAR EDDG 110450Z AUTO VRB01KT CAVOK 14/11 Q1023 NOSIG
06:20
V
13 °C 10 km+ - 030° 030° 2 kt METAR EDDG 110420Z AUTO 03002KT CAVOK 13/11 Q1023 NOSIG
05:50
V
14 °C 10 km+ - Var Var 1 kt METAR EDDG 110350Z AUTO VRB01KT CAVOK 14/11 Q1023 NOSIG
05:20
V
15 °C 10 km+ - 050° 050° 4 kt METAR EDDG 110320Z AUTO 05004KT CAVOK 15/12 Q1023 NOSIG
04:50
V
15 °C 10 km+ - 050° 050° 3 kt METAR EDDG 110250Z AUTO 05003KT 030V090 CAVOK 15/12 Q1023 NOSIG
04:20
V
15 °C 10 km+ - 040° 040° 3 kt METAR EDDG 110220Z AUTO 04003KT CAVOK 15/12 Q1023 NOSIG
03:50
V
15 °C 10 km+ - 040° 040° 3 kt METAR EDDG 110150Z AUTO 04003KT CAVOK 15/12 Q1023 NOSIG
03:20
V
16 °C 10 km+ - Var Var 2 kt METAR EDDG 110120Z AUTO VRB02KT CAVOK 16/12 Q1023 NOSIG
02:50
V
17 °C 10 km+ - 030° 030° 3 kt METAR EDDG 110050Z AUTO 03003KT CAVOK 17/12 Q1023 NOSIG
02:20
V
18 °C 10 km+ - 040° 040° 3 kt METAR EDDG 110020Z AUTO 04003KT CAVOK 18/12 Q1023 NOSIG
01:50
V
19 °C 10 km+ - 040° 040° 3 kt METAR EDDG 102350Z AUTO 04003KT 010V070 CAVOK 19/12 Q1023 NOSIG
01:20
V
18 °C 10 km+ - 040° 040° 3 kt METAR EDDG 102320Z AUTO 04003KT CAVOK 18/12 Q1024 NOSIG
00:50
V
19 °C 10 km+ - 050° 050° 3 kt METAR EDDG 102250Z AUTO 05003KT 020V100 CAVOK 19/12 Q1024 NOSIG
00:20
V
18 °C 10 km+ - 050° 050° 3 kt METAR EDDG 102220Z AUTO 05003KT CAVOK 18/12 Q1024 NOSIG

August 10, 2022

Time Code Weather Temp. Visibility Ceiling Wind METAR/SPECI
23:50
V
18 °C 10 km+ - 040° 040° 3 kt METAR EDDG 102150Z AUTO 04003KT 010V080 CAVOK 18/11 Q1024 NOSIG
23:20
V
19 °C 10 km+ - Var Var 2 kt METAR EDDG 102120Z AUTO VRB02KT CAVOK 19/11 Q1024 NOSIG
22:50
V
20 °C 10 km+ - 040° 040° 2 kt METAR EDDG 102050Z AUTO 04002KT CAVOK 20/11 Q1024 NOSIG
22:20
V
21 °C 10 km+ - Var Var 2 kt METAR EDDG 102020Z AUTO VRB02KT CAVOK 21/11 Q1024 NOSIG
21:50
V
22 °C 10 km+ - Var Var 2 kt METAR EDDG 101950Z AUTO VRB02KT CAVOK 22/12 Q1024 NOSIG
21:20
V
24 °C 10 km+ - Var Var 2 kt METAR EDDG 101920Z AUTO VRB02KT CAVOK 24/10 Q1024 NOSIG
20:50
V
26 °C 10 km+ - 060° 060° 3 kt METAR EDDG 101850Z AUTO 06003KT 020V100 CAVOK 26/10 Q1024 NOSIG
20:20
V
27 °C 10 km+ - 060° 060° 5 kt METAR EDDG 101820Z AUTO 06005KT 360V110 CAVOK 27/10 Q1023 NOSIG
19:50
V
28 °C 10 km+ - 050° 050° 5 kt METAR EDDG 101750Z AUTO 05005KT 350V130 CAVOK 28/10 Q1023 NOSIG
19:20
V
28 °C 10 km+ - 040° 040° 8 kt METAR EDDG 101720Z AUTO 04008KT 360V090 CAVOK 28/10 Q1023 NOSIG
18:50
V
29 °C 10 km+ - 050° 050° 6 kt METAR EDDG 101650Z AUTO 05006KT 010V110 CAVOK 29/10 Q1024 BECMG 05003KT
18:20
V
29 °C 10 km+ - Var Var 7 kt METAR EDDG 101620Z AUTO VRB07KT CAVOK 29/10 Q1024 NOSIG
17:50
V
29 °C 10 km+ - 040° 040° 7 kt METAR EDDG 101550Z AUTO 04007KT 360V090 CAVOK 29/10 Q1024 NOSIG
17:20
V
29 °C 10 km+ - 040° 040° 8 kt METAR EDDG 101520Z AUTO 04008KT 010V140 CAVOK 29/09 Q1024 NOSIG
16:50
V
29 °C 10 km+ - 040° 040° 9 kt METAR EDDG 101450Z AUTO 04009KT 360V090 CAVOK 29/10 Q1024 NOSIG
16:20
V
29 °C 10 km+ - Var Var 6 kt METAR EDDG 101420Z AUTO VRB06KT CAVOK 29/10 Q1024 NOSIG
15:50
V
28 °C 10 km+ - 040° 040° 7 kt METAR EDDG 101350Z AUTO 04007KT 350V110 CAVOK 28/09 Q1025
15:20
V
28 °C 10 km+ - 030° 030° 8 kt METAR EDDG 101320Z AUTO 03008KT 360V080 CAVOK 28/10 Q1025 NOSIG
14:50
V
29 °C 10 km+ - 030° 030° 7 kt METAR EDDG 101250Z AUTO 03007KT 330V100 CAVOK 29/10 Q1025 NOSIG
14:20
V
28 °C 10 km+ - 030° 030° 8 kt METAR EDDG 101220Z AUTO 03008KT 320V100 CAVOK 28/11 Q1025 NOSIG
13:50
V
28 °C 10 km+ - 040° 040° 8 kt METAR EDDG 101150Z AUTO 04008KT 350V110 CAVOK 28/10 Q1026 NOSIG
13:20
V
28 °C 10 km+ - 040° 040° 8 kt METAR EDDG 101120Z AUTO 04008KT 340V120 CAVOK 28/10 Q1026 NOSIG
12:50
V
28 °C 10 km+ - 030° 030° 8 kt METAR EDDG 101050Z AUTO 03008KT 340V090 CAVOK 28/10 Q1026 NOSIG
12:20
V
27 °C 10 km+ - 020° 020° 9 kt METAR EDDG 101020Z AUTO 02009KT 310V060 CAVOK 27/11 Q1026 NOSIG
11:50
V
26 °C 10 km+ - 040° 040° 6 kt METAR EDDG 100950Z AUTO 04006KT 360V110 CAVOK 26/11 Q1027 NOSIG
11:20
V
26 °C 10 km+ - Var Var 4 kt METAR EDDG 100920Z AUTO VRB04KT CAVOK 26/11 Q1027 NOSIG
10:50
V
26 °C 10 km+ - 090° 090° 5 kt METAR EDDG 100850Z AUTO 09005KT 040V140 CAVOK 26/12 Q1027 NOSIG
10:20
V
25 °C 10 km+ - 120° 120° 5 kt METAR EDDG 100820Z AUTO 12005KT 020V170 CAVOK 25/12 Q1027 BECMG 06005KT
09:50
V
24 °C 10 km+ - 040° 040° 3 kt METAR EDDG 100750Z AUTO 04003KT 320V110 CAVOK 24/13 Q1027 NOSIG
09:20
V
22 °C 10 km+ - 050° 050° 3 kt METAR EDDG 100720Z AUTO 05003KT 360V110 CAVOK 22/13 Q1027 NOSIG
08:50
V
21 °C 10 km+ - 050° 050° 4 kt METAR EDDG 100650Z AUTO 05004KT 010V090 CAVOK 21/13 Q1027 NOSIG
08:20
V
19 °C 10 km+ - 040° 040° 4 kt METAR EDDG 100620Z AUTO 04004KT 350V100 CAVOK 19/14 Q1027 NOSIG
07:50
V
17 °C 10 km+ - Var Var 1 kt METAR EDDG 100550Z AUTO VRB01KT CAVOK 17/14 Q1027 BECMG 05005KT
07:20
V
14 °C 10 km+ - 320° 320° 1 kt METAR EDDG 100520Z AUTO 32001KT CAVOK 14/13 Q1027 BECMG 05005KT
06:50
V
13 °C 10 km+ - 240° 240° 1 kt METAR EDDG 100450Z AUTO 24001KT CAVOK 13/12 Q1027 BECMG 05005KT
06:20
V
13 °C 10 km+ - 310° 310° 1 kt METAR EDDG 100420Z AUTO 31001KT CAVOK 13/12 Q1027 NOSIG
05:50
V
13 °C 10 km+ - Var 000° 0 kt METAR EDDG 100350Z AUTO 00000KT CAVOK 13/13 Q1027 NOSIG
05:20
V
14 °C 10 km+ - Var Var 1 kt METAR EDDG 100320Z AUTO VRB01KT CAVOK 14/13 Q1027 NOSIG
04:50
V
14 °C 10 km+ - 010° 010° 2 kt METAR EDDG 100250Z AUTO 01002KT CAVOK 14/13 Q1027 NOSIG
04:20
V
15 °C 10 km+ - 030° 030° 3 kt METAR EDDG 100220Z AUTO 03003KT 340V100 CAVOK 15/13 Q1027 NOSIG
03:50
V
16 °C 10 km+ - 040° 040° 4 kt METAR EDDG 100150Z AUTO 04004KT 010V070 CAVOK 16/14 Q1027 NOSIG
03:20
V
17 °C 10 km+ - 050° 050° 4 kt METAR EDDG 100120Z AUTO 05004KT 010V100 CAVOK 17/14 Q1027 NOSIG
02:50
V
17 °C 10 km+ - 050° 050° 4 kt METAR EDDG 100050Z AUTO 05004KT 360V100 CAVOK 17/14 Q1027 NOSIG
02:20
V
17 °C 10 km+ - 040° 040° 4 kt METAR EDDG 100020Z AUTO 04004KT 350V100 CAVOK 17/14 Q1027 NOSIG
01:50
V
17 °C 10 km+ - 040° 040° 4 kt METAR EDDG 092350Z AUTO 04004KT 360V140 CAVOK 17/14 Q1027 NOSIG
01:20
V
18 °C 10 km+ - 030° 030° 6 kt METAR EDDG 092320Z AUTO 03006KT 340V060 CAVOK 18/14 Q1027 NOSIG
00:50
V
18 °C 10 km+ - 020° 020° 8 kt METAR EDDG 092250Z AUTO 02008KT CAVOK 18/14 Q1027 NOSIG
00:20
V
19 °C 10 km+ - 020° 020° 8 kt METAR EDDG 092220Z AUTO 02008KT 360V060 CAVOK 19/14 Q1027 NOSIG

August 9, 2022

Time Code Weather Temp. Visibility Ceiling Wind METAR/SPECI
23:50
V
19 °C 10 km+ - 020° 020° 7 kt METAR EDDG 092150Z AUTO 02007KT CAVOK 19/14 Q1027 NOSIG
23:20
V
20 °C 10 km+ - 030° 030° 8 kt METAR EDDG 092120Z AUTO 03008KT CAVOK 20/14 Q1027 NOSIG
22:50
V
20 °C 10 km+ - 030° 030° 6 kt METAR EDDG 092050Z AUTO 03006KT 350V070 CAVOK 20/13 Q1027 NOSIG
22:20
V
20 °C 10 km+ - 030° 030° 5 kt METAR EDDG 092020Z AUTO 03005KT 340V090 CAVOK 20/12 Q1027
21:50
V
20 °C 10 km+ - 040° 040° 3 kt METAR EDDG 091950Z AUTO 04003KT 350V100 CAVOK 20/12 Q1027 NOSIG
21:20
V
21 °C 10 km+ - 030° 030° 4 kt METAR EDDG 091920Z AUTO 03004KT 340V090 CAVOK 21/12 Q1027 NOSIG
20:50
V
23 °C 10 km+ - 030° 030° 6 kt METAR EDDG 091850Z AUTO 03006KT 360V120 CAVOK 23/12 Q1027 NOSIG
20:20
V
25 °C 10 km+ - 030° 030° 6 kt METAR EDDG 091820Z AUTO 03006KT 350V070 CAVOK 25/12 Q1027 NOSIG
19:50
V
25 °C 10 km+ - 040° 040° 7 kt METAR EDDG 091750Z AUTO 04007KT 010V110 CAVOK 25/11 Q1027 NOSIG
19:20
V
26 °C 10 km+ - 040° 040° 7 kt METAR EDDG 091720Z AUTO 04007KT 010V090 CAVOK 26/11 Q1026 NOSIG
18:50
V
26 °C 10 km+ - 030° 030° 10 kt METAR EDDG 091650Z AUTO 03010KT CAVOK 26/11 Q1026 NOSIG
18:20
V
26 °C 10 km+ - 040° 040° 9 kt METAR EDDG 091620Z AUTO 04009KT 010V100 CAVOK 26/10 Q1027 NOSIG
17:50
V
27 °C 10 km+ - 030° 030° 9 kt METAR EDDG 091550Z AUTO 03009KT 340V120 CAVOK 27/11 Q1027 NOSIG
17:20
V
27 °C 10 km+ - 020° 020° 8 kt METAR EDDG 091520Z AUTO 02008KT 330V060 CAVOK 27/11 Q1027 NOSIG
16:50
V
26 °C 10 km+ - 050° 050° 7 kt METAR EDDG 091450Z AUTO 05007KT 360V110 CAVOK 26/11 Q1027 NOSIG
Older data

We and third parties follow your internet behavior on our website with cookies. If you continue, we assume you agree with our cookie policy. Learn more